Terminal Aerodrome Forecast
Issued by NWS Mobile, AL

Home | Current Version | Previous Version | Text Only | Print | Product List | Glossary On
Versions: 1 2 3 4 5 6 7 8 9 10 11 12 13 14 15 16 17 18 19 20 21 22 23 24 25 26 27 28 29 30 31 32 33 34
000
FTUS44 KMOB 270243 AAB
TAFMOB
TAF AMD
KMOB 270243Z 2703/2724 18007KT P6SM SCT007
     FM270400 16006KT 4SM BR BKN005 BKN020
      TEMPO 2709/2713 1SM BR OVC002
     FM271800 18013G20KT P6SM VCSH BKN050=

USA.gov is the U.S. government's official web portal to all federal, state and local government web resources and services.